Time;durP1;ratioP1;P1;durP2;ratioP2;P2;SDS_P1;SDS_P2;PMS_P1;PMS_P2;Temp;Humidity;BMP_temperature;BMP_pressure;BME280_temperature;BME280_humidity;BME280_pressure;Samples;Min_cycle;Max_cycle;Signal;HPM_P1;HPM_P2
2022/12/01 00:01:16;;;;;;;22.67;14.60;;;;;;;9.25;55.76;99306.34;7011385;28;20235;-83
2022/12/01 00:04:39;;;;;;;23.80;15.27;;;;;;;9.63;54.58;99310.63;7012618;28;20211;-82
2022/12/01 00:11:57;;;;;;;22.67;14.97;;;;;;;9.48;53.48;99244.34;7006491;28;20266;-84
2022/12/01 00:15:19;;;;;;;22.53;14.13;;;;;;;9.50;53.26;99275.44;7010503;28;20209;-83
2022/12/01 00:18:41;;;;;;;20.93;14.17;;;;;;;9.18;53.78;99308.13;7011037;28;20229;-83
2022/12/01 00:22:04;;;;;;;21.10;13.97;;;;;;;9.07;53.93;99302.34;7009986;28;20227;-83
2022/12/01 00:25:25;;;;;;;22.97;14.50;;;;;;;9.05;54.29;99293.63;7010899;28;20206;-83
2022/12/01 00:28:49;;;;;;;21.03;13.97;;;;;;;8.76;54.30;99223.69;7011705;28;20233;-83
2022/12/01 00:32:34;;;;;;;21.80;14.57;;;;;;;9.52;53.51;99292.25;7011719;28;20208;-82
2022/12/01 00:35:59;;;;;;;25.70;15.47;;;;;;;9.42;52.99;99313.25;7012011;28;20197;-83
2022/12/01 00:39:40;;;;;;;22.07;13.90;;;;;;;9.68;52.81;99300.13;7011878;28;20248;-85
2022/12/01 00:43:19;;;;;;;21.57;14.33;;;;;;;9.19;54.43;99308.94;7011006;28;20206;-82
2022/12/01 00:46:44;;;;;;;23.27;15.67;;;;;;;8.65;54.48;99301.22;7011569;28;20255;-83
2022/12/01 00:50:07;;;;;;;19.90;13.13;;;;;;;8.62;54.41;99259.44;7011840;28;20254;-83
2022/12/01 00:53:29;;;;;;;24.10;14.40;;;;;;;8.09;55.48;99274.75;7011427;28;20210;-83
2022/12/01 00:56:52;;;;;;;21.03;14.00;;;;;;;8.52;55.29;99325.19;7010601;28;20280;-83
2022/12/01 01:00:26;;;;;;;24.20;15.07;;;;;;;8.87;54.58;99306.59;7014053;28;20231;-83
2022/12/01 01:03:59;;;;;;;22.03;14.80;;;;;;;8.79;53.75;99305.81;7016509;28;20683;-83
2022/12/01 01:07:21;;;;;;;22.37;14.27;;;;;;;8.20;55.88;99302.06;7015381;28;20224;-83
2022/12/01 01:10:44;;;;;;;20.00;12.67;;;;;;;8.35;55.48;99313.72;7016058;28;20262;-82
2022/12/01 01:14:08;;;;;;;20.90;14.67;;;;;;;8.21;55.14;99308.28;7014526;28;20216;-83
2022/12/01 01:17:55;;;;;;;19.10;13.07;;;;;;;8.33;55.69;99306.84;7013617;28;20223;-84
2022/12/01 01:21:29;;;;;;;24.23;15.00;;;;;;;8.45;54.36;99317.03;7013937;28;20229;-83
2022/12/01 01:24:51;;;;;;;27.10;14.57;;;;;;;8.15;55.84;99327.75;7015845;28;20186;-83
2022/12/01 01:28:13;;;;;;;23.67;15.33;;;;;;;8.54;55.13;99326.69;7016478;28;20278;-83
2022/12/01 01:31:36;;;;;;;25.10;14.57;;;;;;;8.52;53.14;99250.78;7016005;28;20359;-82
2022/12/01 01:35:08;;;;;;;24.13;15.43;;;;;;;8.40;54.28;99326.63;7016021;28;20208;-82
2022/12/01 01:38:57;;;;;;;;;;;;;;;;;;;;;
2022/12/01 01:42:20;;;;;;;22.80;14.87;;;;;;;8.65;54.69;99310.13;7015415;28;20251;-82
2022/12/01 01:45:43;;;;;;;24.57;14.53;;;;;;;8.78;54.39;99313.03;7011303;28;20204;-84
2022/12/01 01:49:07;;;;;;;24.70;15.93;;;;;;;8.78;53.81;99288.84;7013349;28;20230;-84
2022/12/01 01:52:29;;;;;;;22.00;14.37;;;;;;;8.82;54.22;99317.03;7012389;28;20207;-84
2022/12/01 01:55:51;;;;;;;24.97;15.57;;;;;;;8.09;56.70;99323.09;7011876;28;20206;-84
2022/12/01 01:59:14;;;;;;;23.53;14.80;;;;;;;8.70;55.23;99313.13;7012098;28;20243;-84
2022/12/01 02:02:39;;;;;;;23.53;15.20;;;;;;;8.77;54.48;99306.00;7011828;28;20227;-84
2022/12/01 02:06:02;;;;;;;24.23;14.77;;;;;;;8.61;54.46;99302.63;7012435;28;20291;-84
2022/12/01 02:09:24;;;;;;;22.87;14.17;;;;;;;8.57;55.10;99315.56;7012820;28;20251;-84
2022/12/01 02:12:53;;;;;;;23.00;14.47;;;;;;;8.21;54.73;99274.22;7010923;28;20277;-84
2022/12/01 02:16:19;;;;;;;21.57;14.97;;;;;;;7.99;55.88;99299.16;7009648;28;20303;-84
2022/12/01 02:19:58;;;;;;;22.53;14.20;;;;;;;8.76;53.39;99290.03;7010571;28;20655;-83
2022/12/01 02:23:38;;;;;;;22.63;14.43;;;;;;;8.84;53.57;99298.03;7011553;28;20193;-83
2022/12/01 02:27:03;;;;;;;24.20;15.70;;;;;;;8.60;53.71;99298.25;7010550;28;20228;-84
2022/12/01 02:30:33;;;;;;;23.80;14.90;;;;;;;8.36;55.11;99319.94;7010646;28;20235;-84
2022/12/01 02:33:58;;;;;;;20.30;13.63;;;;;;;8.22;54.23;99265.13;6994637;28;20746;-83
2022/12/01 02:37:24;;;;;;;26.37;16.20;;;;;;;8.49;54.17;99302.19;6984720;28;20252;-83
2022/12/01 02:40:49;;;;;;;23.63;14.67;;;;;;;7.41;57.22;99282.66;6984453;28;20249;-82
2022/12/01 02:44:16;;;;;;;26.40;16.07;;;;;;;8.12;56.43;99293.19;6984822;28;20259;-82
2022/12/01 02:47:40;;;;;;;22.90;14.67;;;;;;;7.97;55.50;99305.72;6983962;28;20232;-83
2022/12/01 02:51:06;;;;;;;24.27;15.47;;;;;;;8.62;53.99;99306.97;6985279;28;20205;-82
2022/12/01 02:54:30;;;;;;;24.60;15.83;;;;;;;7.87;56.00;99303.25;6985823;28;20268;-83
2022/12/01 02:57:52;;;;;;;25.40;16.13;;;;;;;8.84;54.01;99317.69;6985224;28;20702;-83
2022/12/01 03:01:27;;;;;;;21.93;14.67;;;;;;;8.98;54.22;99316.91;6984828;28;20231;-83
2022/12/01 03:04:57;;;;;;;22.67;14.63;;;;;;;8.76;52.84;99274.75;6984755;28;20616;-83
2022/12/01 03:08:27;;;;;;;24.20;14.93;;;;;;;8.66;54.62;99310.97;6983533;28;20225;-82
2022/12/01 03:11:56;;;;;;;23.10;14.40;;;;;;;9.32;52.05;99314.50;6981226;28;20199;-83
2022/12/01 03:15:25;;;;;;;23.53;15.03;;;;;;;9.18;51.55;99248.94;6980152;28;20630;-82
2022/12/01 03:18:50;;;;;;;23.80;16.10;;;;;;;8.27;54.23;99310.25;6984019;28;20580;-83
2022/12/01 03:22:14;;;;;;;23.33;16.50;;;;;;;7.96;55.84;99304.03;6980726;28;20216;-83
2022/12/01 03:25:38;;;;;;;22.87;14.80;;;;;;;8.53;53.92;99310.72;6979397;28;20209;-82
2022/12/01 03:29:03;;;;;;;23.37;14.30;;;;;;;8.06;54.10;99248.25;6982253;28;20292;-83
2022/12/01 03:32:28;;;;;;;26.50;15.20;;;;;;;8.48;53.80;99311.28;6984670;28;20568;-82
2022/12/01 03:35:56;;;;;;;24.80;15.43;;;;;;;8.04;55.32;99310.22;6983502;28;20204;-83
2022/12/01 03:39:37;;;;;;;23.93;16.00;;;;;;;8.98;52.82;99308.84;6984911;28;20751;-83
2022/12/01 03:43:01;;;;;;;25.80;15.43;;;;;;;8.47;52.83;99273.81;6983902;28;20217;-83
2022/12/01 03:46:27;;;;;;;21.97;15.67;;;;;;;8.54;53.52;99294.44;6983295;28;20612;-84
2022/12/01 03:49:50;;;;;;;21.73;15.00;;;;;;;8.16;54.54;99284.63;6984599;28;20192;-83
2022/12/01 03:53:19;;;;;;;23.60;15.37;;;;;;;7.33;55.77;99220.16;6984798;28;20202;-82
2022/12/01 03:56:45;;;;;;;27.30;15.80;;;;;;;8.13;54.77;99276.09;6984754;28;20226;-83
2022/12/01 04:00:17;;;;;;;23.30;14.97;;;;;;;8.38;54.17;99269.53;6985097;28;20196;-83
2022/12/01 04:07:26;;;;;;;22.73;14.33;;;;;;;8.38;54.05;99291.03;6980097;28;20228;-82
2022/12/01 04:10:47;;;;;;;25.27;16.17;;;;;;;7.35;56.02;99272.63;6984152;28;20234;-83
2022/12/01 04:14:10;;;;;;;24.60;16.27;;;;;;;7.64;56.54;99313.09;6985090;28;20218;-82
2022/12/01 04:17:32;;;;;;;26.33;16.10;;;;;;;7.79;56.06;99307.81;6983391;28;20571;-82
2022/12/01 04:20:54;;;;;;;26.70;15.70;;;;;;;8.17;55.17;99298.88;6985271;28;20232;-83
2022/12/01 04:24:16;;;;;;;27.43;17.07;;;;;;;8.40;53.81;99300.59;6984517;28;20217;-83
2022/12/01 04:27:38;;;;;;;25.23;16.20;;;;;;;8.46;54.07;99310.63;6982536;28;20616;-82
2022/12/01 04:31:01;;;;;;;25.67;15.67;;;;;;;8.01;53.92;99219.25;6983680;28;20199;-83
2022/12/01 04:34:22;;;;;;;26.50;16.70;;;;;;;8.04;54.27;99226.97;6984674;28;20204;-82
2022/12/01 04:37:44;;;;;;;26.20;16.80;;;;;;;8.13;54.50;99293.00;6987359;28;20233;-83
2022/12/01 04:41:09;;;;;;;25.87;16.13;;;;;;;8.18;55.59;99298.69;6988144;28;20228;-83
2022/12/01 04:44:31;;;;;;;27.23;16.00;;;;;;;7.90;55.04;99269.84;6987777;28;20206;-83
2022/12/01 04:47:54;;;;;;;25.23;16.23;;;;;;;8.16;54.49;99275.72;6988411;28;20241;-83
2022/12/01 04:51:15;;;;;;;26.70;15.83;;;;;;;8.60;53.74;99293.69;6986881;28;20215;-84
2022/12/01 04:54:37;;;;;;;23.07;14.83;;;;;;;8.77;53.03;99307.88;6988137;28;20214;-83
2022/12/01 04:58:01;;;;;;;23.27;14.70;;;;;;;8.69;53.04;99299.84;6987447;28;20231;-83
2022/12/01 05:01:22;;;;;;;25.60;16.17;;;;;;;8.64;52.10;99296.88;6988676;28;20254;-82
2022/12/01 05:04:47;;;;;;;24.00;14.57;;;;;;;8.59;53.03;99293.88;6988711;28;20209;-83
2022/12/01 05:08:08;;;;;;;21.27;14.33;;;;;;;8.13;54.20;99298.38;6983798;28;20233;-84
2022/12/01 05:11:31;;;;;;;24.97;17.27;;;;;;;8.27;54.29;99324.53;6980970;28;20223;-84
2022/12/01 05:14:52;;;;;;;20.17;14.50;;;;;;;7.49;54.87;99226.28;6982000;28;20274;-83
2022/12/01 05:18:14;;;;;;;22.73;14.70;;;;;;;7.89;55.59;99292.34;6983101;28;20256;-82
2022/12/01 05:21:36;;;;;;;25.00;15.70;;;;;;;7.81;55.14;99313.84;6982975;28;20235;-83
2022/12/01 05:24:57;;;;;;;27.27;16.70;;;;;;;8.40;54.73;99322.09;6984322;28;20206;-83
2022/12/01 05:28:19;;;;;;;28.43;16.17;;;;;;;8.06;54.93;99305.47;6985711;28;20231;-82
2022/12/01 05:31:40;;;;;;;23.67;16.57;;;;;;;8.22;54.62;99302.75;6996577;28;20192;-82
2022/12/01 05:35:02;;;;;;;25.97;16.03;;;;;;;8.25;54.02;99294.31;7010050;28;20219;-83
2022/12/01 05:38:25;;;;;;;29.97;18.07;;;;;;;8.20;54.72;99320.03;7010488;28;20233;-83
2022/12/01 05:41:49;;;;;;;27.17;17.17;;;;;;;8.29;54.83;99327.03;7010620;28;20287;-83
2022/12/01 05:45:14;;;;;;;26.83;16.17;;;;;;;8.55;53.88;99303.34;7012125;28;20222;-83
2022/12/01 05:48:36;;;;;;;27.43;16.80;;;;;;;8.63;53.58;99332.81;7014287;28;20234;-83
2022/12/01 05:51:58;;;;;;;25.80;17.37;;;;;;;8.68;53.54;99320.53;7014408;28;20211;-85
2022/12/01 05:55:21;;;;;;;29.50;18.17;;;;;;;8.29;54.31;99306.38;7011684;28;20211;-82
2022/12/01 05:58:43;;;;;;;26.33;17.10;;;;;;;8.60;54.00;99328.63;7004289;28;20254;-82
2022/12/01 06:02:31;;;;;;;30.90;18.23;;;;;;;8.11;54.68;99323.75;6998519;28;20234;-82
2022/12/01 06:05:59;;;;;;;29.73;17.07;;;;;;;8.10;54.97;99325.63;7001688;28;20225;-83
2022/12/01 06:09:31;;;;;;;26.73;16.80;;;;;;;8.69;54.12;99324.88;6994974;28;20223;-83
2022/12/01 06:12:53;;;;;;;34.10;19.43;;;;;;;7.57;56.40;99327.38;7002010;28;20205;-83
2022/12/01 06:16:15;;;;;;;26.47;17.20;;;;;;;8.24;54.52;99338.31;7002759;28;20215;-83
2022/12/01 06:19:38;;;;;;;25.73;17.20;;;;;;;7.78;56.56;99309.66;6993732;28;20231;-83
2022/12/01 06:22:59;;;;;;;29.00;18.77;;;;;;;8.06;55.50;99326.13;7000237;28;20277;-85
2022/12/01 06:26:30;;;;;;;27.50;17.43;;;;;;;8.34;54.88;99330.88;7005884;28;20215;-85
2022/12/01 06:29:56;;;;;;;30.80;18.33;;;;;;;7.75;56.23;99301.13;7004370;28;20216;-83
2022/12/01 06:33:18;;;;;;;32.37;17.60;;;;;;;7.57;55.38;99246.88;7005022;28;20202;-82
2022/12/01 06:36:49;;;;;;;27.13;17.30;;;;;;;8.41;54.71;99325.59;7012021;28;20242;-83
2022/12/01 06:40:12;;;;;;;29.43;18.83;;;;;;;8.47;54.84;99327.56;6985573;28;20223;-83
2022/12/01 06:43:36;;;;;;;28.73;18.50;;;;;;;8.08;55.50;99305.31;6987176;28;20226;-83
2022/12/01 06:46:59;;;;;;;32.37;18.57;;;;;;;8.43;54.20;99342.41;6987087;28;20264;-83
2022/12/01 06:50:21;;;;;;;26.67;16.60;;;;;;;7.59;56.91;99323.50;6987178;28;20219;-83
2022/12/01 06:53:43;;;;;;;32.97;19.43;;;;;;;8.34;55.82;99330.88;6986131;28;20225;-83
2022/12/01 06:57:05;;;;;;;27.77;17.20;;;;;;;8.27;55.59;99351.41;6982620;28;20239;-84
2022/12/01 07:00:27;;;;;;;30.87;18.43;;;;;;;8.11;56.44;99351.44;6981385;28;20213;-85
2022/12/01 07:03:51;;;;;;;26.33;17.47;;;;;;;8.11;56.38;99323.75;6981781;28;20412;-84
2022/12/01 07:07:13;;;;;;;31.10;19.73;;;;;;;8.69;55.22;99349.09;6981211;28;20291;-84
2022/12/01 07:10:34;;;;;;;32.37;19.33;;;;;;;8.59;55.35;99358.38;6982037;28;20262;-84
2022/12/01 07:13:56;;;;;;;30.60;18.97;;;;;;;8.42;55.67;99333.47;6984436;28;20298;-86
2022/12/01 07:17:17;;;;;;;28.00;18.73;;;;;;;8.09;55.51;99264.00;7008931;28;20228;-84
2022/12/01 07:20:40;;;;;;;34.10;20.10;;;;;;;8.53;54.75;99327.69;7008961;28;20208;-84
2022/12/01 07:24:02;;;;;;;30.13;18.97;;;;;;;8.96;56.48;99329.69;7007737;28;20572;-82
2022/12/01 07:27:28;;;;;;;28.60;18.10;;;;;;;8.48;55.94;99350.75;7004798;28;20276;-84
2022/12/01 07:30:50;;;;;;;29.50;18.70;;;;;;;8.26;55.22;99314.78;7008290;28;20218;-84
2022/12/01 07:34:12;;;;;;;33.70;20.80;;;;;;;8.18;55.71;99338.97;7011129;28;20283;-85
2022/12/01 07:37:35;;;;;;;29.60;19.33;;;;;;;8.47;55.38;99339.16;7009717;28;20694;-87
2022/12/01 07:41:02;;;;;;;30.87;19.90;;;;;;;8.52;55.51;99360.97;7005952;28;20288;-82
2022/12/01 07:44:23;;;;;;;29.83;18.37;;;;;;;8.62;55.33;99360.72;6993756;28;20229;-82
2022/12/01 07:47:45;;;;;;;31.53;20.40;;;;;;;8.13;55.88;99321.75;6977232;28;20305;-82
2022/12/01 07:51:07;;;;;;;29.93;19.60;;;;;;;8.06;55.69;99343.09;6981556;28;20231;-82
2022/12/01 07:54:30;;;;;;;29.43;19.93;;;;;;;8.32;56.11;99348.16;7005356;28;20229;-82
2022/12/01 07:57:52;;;;;;;30.23;18.13;;;;;;;8.62;55.50;99374.16;6990625;28;20220;-81
2022/12/01 08:01:15;;;;;;;29.60;19.40;;;;;;;8.69;54.78;99373.28;7005590;28;20203;-82
2022/12/01 08:04:36;;;;;;;32.57;20.63;;;;;;;8.60;55.67;99366.28;7001124;28;20255;-82
2022/12/01 08:07:58;;;;;;;32.70;19.70;;;;;;;8.67;55.48;99356.47;7007405;28;20891;-85
2022/12/01 08:11:22;;;;;;;33.73;20.13;;;;;;;8.58;55.07;99362.09;7012670;28;20207;-82
2022/12/01 08:14:44;;;;;;;28.23;18.70;;;;;;;8.52;55.57;99374.41;7010866;28;20219;-82
2022/12/01 08:18:06;;;;;;;32.77;20.10;;;;;;;8.20;56.68;99363.84;7010690;28;20227;-82
2022/12/01 08:21:27;;;;;;;31.57;19.10;;;;;;;8.53;55.48;99377.91;6999687;28;20201;-82
2022/12/01 08:24:49;;;;;;;31.57;20.67;;;;;;;8.47;55.81;99365.19;7010627;28;20243;-83
2022/12/01 08:28:13;;;;;;;31.77;19.67;;;;;;;8.43;56.19;99385.38;7004930;28;20248;-82
2022/12/01 08:31:36;;;;;;;29.17;19.17;;;;;;;8.37;55.66;99383.41;7006069;28;20236;-81
2022/12/01 08:34:58;;;;;;;28.47;18.40;;;;;;;8.41;56.24;99382.00;6998256;28;20262;-81
2022/12/01 08:38:19;;;;;;;28.17;18.20;;;;;;;8.33;55.52;99372.19;6997554;28;20271;-81
2022/12/01 08:41:41;;;;;;;30.03;18.80;;;;;;;8.54;55.45;99382.28;6994547;28;20228;-81
2022/12/01 08:45:04;;;;;;;29.97;19.40;;;;;;;8.13;56.63;99367.41;6996327;28;20216;-81
2022/12/01 08:48:28;;;;;;;25.23;16.70;;;;;;;8.00;56.74;99370.63;7007763;28;20232;-82
2022/12/01 08:51:50;;;;;;;29.00;19.27;;;;;;;8.12;56.92;99387.19;7007958;28;20649;-82
2022/12/01 08:55:11;;;;;;;26.93;18.00;;;;;;;8.23;56.86;99389.50;7008309;28;20209;-83
2022/12/01 08:58:33;;;;;;;29.40;18.53;;;;;;;8.20;56.71;99368.38;7009862;28;20335;-81
2022/12/01 09:01:56;;;;;;;31.87;19.67;;;;;;;8.54;55.92;99361.59;6984418;28;20252;-84
2022/12/01 09:05:18;;;;;;;29.97;19.03;;;;;;;9.34;53.53;99387.84;7002701;28;20218;-83
2022/12/01 09:08:40;;;;;;;29.20;20.03;;;;;;;9.38;53.78;99402.56;7011121;28;20231;-83
2022/12/01 09:12:02;;;;;;;30.53;19.40;;;;;;;9.47;51.87;99312.66;7009165;28;20215;-86
2022/12/01 09:15:23;;;;;;;27.57;19.53;;;;;;;9.41;52.09;99388.75;7004688;28;20207;-83
2022/12/01 09:18:47;;;;;;;25.83;17.50;;;;;;;9.51;52.58;99405.50;6989474;28;20224;-84
2022/12/01 09:22:14;;;;;;;27.93;18.43;;;;;;;9.31;53.87;99401.63;6988556;28;20232;-83
2022/12/01 09:25:36;;;;;;;32.13;19.20;;;;;;;8.79;53.43;99321.94;6988296;28;20613;-84
2022/12/01 09:28:59;;;;;;;26.53;18.53;;;;;;;8.99;54.29;99410.00;6989281;28;20252;-83
2022/12/01 09:32:21;;;;;;;32.70;18.50;;;;;;;8.86;54.87;99392.78;6988993;28;20207;-85
2022/12/01 09:35:44;;;;;;;29.90;19.90;;;;;;;8.45;54.92;99405.69;7003496;28;20274;-85
2022/12/01 09:39:07;;;;;;;28.00;19.07;;;;;;;8.73;54.22;99339.63;7003953;28;20697;-86
2022/12/01 09:42:30;;;;;;;30.20;18.17;;;;;;;8.80;54.15;99382.75;7003610;28;21007;-85
2022/12/01 09:45:55;;;;;;;32.67;19.53;;;;;;;8.71;54.89;99381.16;6995022;28;20235;-85
2022/12/01 09:49:18;;;;;;;27.13;18.27;;;;;;;9.02;54.03;99332.47;6986072;28;20223;-86
2022/12/01 09:52:43;;;;;;;30.33;19.57;;;;;;;9.15;53.93;99381.09;6982358;28;20215;-85
2022/12/01 09:56:06;;;;;;;27.23;19.30;;;;;;;8.35;54.53;99292.22;6983784;28;20263;-86
2022/12/01 09:59:33;;;;;;;27.47;18.30;;;;;;;9.41;53.13;99383.38;6982678;28;20270;-85
2022/12/01 10:03:00;;;;;;;25.13;16.47;;;;;;;9.04;53.13;99321.56;6983898;28;20285;-85
2022/12/01 10:06:27;;;;;;;27.50;18.00;;;;;;;9.15;53.51;99346.13;7018046;28;20593;-86
2022/12/01 10:09:54;;;;;;;27.60;17.87;;;;;;;9.52;52.98;99364.91;7010154;28;20189;-85
2022/12/01 10:13:18;;;;;;;25.13;16.93;;;;;;;9.70;52.49;99369.94;7011146;28;20265;-85
2022/12/01 10:16:45;;;;;;;29.97;18.43;;;;;;;9.90;52.46;99357.56;6982209;28;20211;-86
2022/12/01 10:20:22;;;;;;;25.20;17.80;;;;;;;9.41;52.70;99318.78;6983187;28;20208;-85
2022/12/01 10:24:04;;;;;;;28.87;17.80;;;;;;;9.20;53.42;99359.88;6988967;28;20229;-85
2022/12/01 10:27:40;;;;;;;27.77;19.17;;;;;;;9.56;53.38;99351.94;6988960;28;20229;-85
2022/12/01 10:31:07;;;;;;;26.23;17.73;;;;;;;9.05;52.79;99278.31;6989244;28;20212;-84
2022/12/01 10:34:32;;;;;;;29.23;18.40;;;;;;;9.74;53.13;99347.03;6989297;28;20597;-85
2022/12/01 10:37:59;;;;;;;27.93;18.30;;;;;;;9.74;53.33;99357.78;6988552;28;20234;-84
2022/12/01 10:41:22;;;;;;;25.70;17.33;;;;;;;9.56;53.21;99343.88;6989158;28;20205;-87
2022/12/01 10:44:45;;;;;;;28.70;18.53;;;;;;;9.46;53.39;99344.13;6984961;28;20228;-86
2022/12/01 10:48:10;;;;;;;27.73;19.20;;;;;;;9.76;53.57;99347.66;7006273;28;20343;-86
2022/12/01 10:51:32;;;;;;;24.03;16.27;;;;;;;9.38;52.74;99325.38;7009956;28;20203;-85
2022/12/01 10:54:54;;;;;;;27.10;17.63;;;;;;;9.76;52.82;99332.34;6985565;28;20219;-86
2022/12/01 10:58:17;;;;;;;24.53;16.67;;;;;;;9.01;53.10;99278.88;6983104;28;20233;-83
2022/12/01 11:01:47;;;;;;;26.63;16.97;;;;;;;9.46;53.01;99337.91;7007253;28;20263;-82
2022/12/01 11:05:25;;;;;;;25.83;17.17;;;;;;;9.52;52.81;99288.72;6992059;28;20241;-81
2022/12/01 11:08:52;;;;;;;27.77;17.73;;;;;;;9.92;54.00;99334.00;6981265;28;20232;-84
2022/12/01 11:12:19;;;;;;;28.90;18.90;;;;;;;10.30;53.72;99317.50;7004929;28;20295;-85
2022/12/01 11:15:48;;;;;;;50.70;28.67;;;;;;;10.64;52.52;99319.50;7002461;28;20215;-82
2022/12/01 11:19:21;;;;;;;23.73;16.57;;;;;;;10.69;50.83;99317.06;7008448;28;20233;-84
2022/12/01 11:22:42;;;;;;;26.33;15.57;;;;;;;9.96;52.02;99309.19;7007054;28;20239;-84
2022/12/01 11:26:13;;;;;;;24.93;17.17;;;;;;;10.29;52.21;99310.44;7008561;28;20269;-81
2022/12/01 11:29:36;;;;;;;23.90;14.23;;;;;;;10.48;52.47;99304.41;6995669;28;20314;-81
2022/12/01 11:32:59;;;;;;;21.60;14.83;;;;;;;9.85;51.16;99290.81;6991480;28;20202;-82
2022/12/01 11:36:32;;;;;;;23.83;15.83;;;;;;;9.59;52.75;99306.66;6980280;28;20354;-81
2022/12/01 11:39:54;;;;;;;24.80;16.20;;;;;;;10.25;51.28;99298.38;6979892;28;20226;-82
2022/12/01 11:43:23;;;;;;;24.20;15.43;;;;;;;10.45;51.63;99291.31;6997285;28;20678;-81
2022/12/01 11:46:45;;;;;;;24.07;15.67;;;;;;;10.67;51.09;99292.97;6983482;28;20317;-83
2022/12/01 11:50:24;;;;;;;22.70;14.90;;;;;;;9.67;52.23;99298.47;7006310;28;20717;-82
2022/12/01 11:53:47;;;;;;;26.77;16.03;;;;;;;10.09;52.00;99289.69;7008159;28;20228;-82
2022/12/01 11:57:09;;;;;;;23.90;16.47;;;;;;;10.40;51.62;99295.63;7002509;28;20227;-82
2022/12/01 12:00:43;;;;;;;23.77;16.53;;;;;;;10.83;51.08;99297.25;7004879;28;20280;-83
2022/12/01 12:04:21;;;;;;;23.90;15.90;;;;;;;10.14;51.08;99258.44;7011835;28;20228;-83
2022/12/01 12:07:56;;;;;;;24.50;15.57;;;;;;;10.02;51.57;99292.25;7040746;28;20220;-83
2022/12/01 12:11:20;;;;;;;31.77;16.57;;;;;;;10.05;52.20;99285.69;7016658;28;20209;-84
2022/12/01 12:14:50;;;;;;;21.20;14.77;;;;;;;9.84;51.78;99223.66;7003473;28;20209;-85
2022/12/01 12:18:33;;;;;;;19.57;14.03;;;;;;;10.61;50.82;99284.81;7011591;28;20231;-85
2022/12/01 12:22:12;;;;;;;25.27;16.20;;;;;;;10.29;51.13;99274.56;7003556;28;20239;-84
2022/12/01 12:25:46;;;;;;;22.50;15.93;;;;;;;10.73;50.61;99272.47;7009395;28;20263;-85
2022/12/01 12:29:26;;;;;;;22.93;15.07;;;;;;;10.00;51.95;99267.38;7020884;28;20225;-87
2022/12/01 12:33:27;;;;;;;21.03;14.90;;;;;;;9.32;52.00;99142.31;7006652;28;20206;-85
2022/12/01 12:36:55;;;;;;;23.00;15.37;;;;;;;10.49;51.08;99268.34;6933679;28;20230;-85
2022/12/01 12:40:36;;;;;;;22.90;15.27;;;;;;;10.17;51.16;99266.13;7005415;28;20628;-84
2022/12/01 12:44:17;;;;;;;25.93;16.07;;;;;;;10.36;51.54;99243.97;7004095;28;20258;-85
2022/12/01 12:47:51;;;;;;;22.90;14.13;;;;;;;10.89;51.71;99251.47;7004147;28;20310;-85
2022/12/01 12:51:15;;;;;;;23.73;15.90;;;;;;;11.09;49.83;99252.44;7004689;28;20271;-86
2022/12/01 12:54:43;;;;;;;23.33;15.47;;;;;;;10.07;50.68;99176.72;7004537;28;20202;-85
2022/12/01 12:58:09;;;;;;;23.83;15.83;;;;;;;10.66;51.00;99239.22;7008496;28;20236;-85
2022/12/01 13:01:36;;;;;;;22.43;15.33;;;;;;;10.66;51.26;99250.88;6984322;28;20233;-85
2022/12/01 13:05:01;;;;;;;25.13;16.43;;;;;;;10.79;49.88;99231.22;6995009;28;20270;-85
2022/12/01 13:08:25;;;;;;;21.37;14.73;;;;;;;10.91;49.78;99244.00;6999633;28;20234;-84
2022/12/01 13:11:51;;;;;;;21.70;15.23;;;;;;;11.03;49.34;99257.78;7003342;28;20289;-85
2022/12/01 13:15:18;;;;;;;19.40;14.53;;;;;;;10.90;49.72;99263.91;6987229;28;20220;-85
2022/12/01 13:18:44;;;;;;;23.60;14.53;;;;;;;10.23;50.88;99249.22;6994177;28;20229;-85
2022/12/01 13:22:06;;;;;;;22.97;14.60;;;;;;;11.00;50.11;99261.72;6997433;28;20220;-85
2022/12/01 13:25:30;;;;;;;20.47;14.70;;;;;;;11.12;49.74;99254.75;7007685;28;20681;-85
2022/12/01 13:28:53;;;;;;;20.87;14.27;;;;;;;11.08;50.15;99239.13;6998757;28;20225;-85
2022/12/01 13:32:39;;;;;;;22.77;15.23;;;;;;;11.18;49.90;99250.41;7006696;28;20210;-85
2022/12/01 13:36:08;;;;;;;61.07;35.63;;;;;;;11.13;50.66;99231.28;6987037;28;20213;-85
2022/12/01 13:39:34;;;;;;;73.80;35.70;;;;;;;10.69;51.71;99255.03;6999412;28;20270;-85
2022/12/01 13:42:57;;;;;;;23.97;17.80;;;;;;;10.27;52.35;99223.53;6990097;28;20194;-85
2022/12/01 13:46:22;;;;;;;28.07;17.70;;;;;;;10.82;52.12;99252.44;7008653;28;20256;-84
2022/12/01 13:49:45;;;;;;;25.03;16.13;;;;;;;10.77;51.94;99241.41;7007453;28;20232;-84
2022/12/01 13:53:12;;;;;;;24.00;15.40;;;;;;;10.79;52.01;99232.09;7007207;28;20216;-84
2022/12/01 13:56:45;;;;;;;22.83;14.97;;;;;;;10.66;51.88;99244.63;7008405;28;20215;-84
2022/12/01 14:00:22;;;;;;;25.93;16.10;;;;;;;10.03;52.46;99196.97;7007261;28;20189;-84
2022/12/01 14:03:51;;;;;;;23.10;15.50;;;;;;;10.23;53.23;99240.28;6993826;28;20213;-84
2022/12/01 14:07:19;;;;;;;23.73;16.00;;;;;;;10.46;52.54;99230.16;6978408;28;20319;-83
2022/12/01 14:10:55;;;;;;;25.00;15.27;;;;;;;10.43;52.36;99209.81;6988265;28;20660;-83
2022/12/01 14:14:20;;;;;;;25.40;16.43;;;;;;;10.65;52.30;99240.25;6999293;28;20224;-83
2022/12/01 14:17:41;;;;;;;24.93;16.70;;;;;;;10.84;52.10;99250.38;7004553;28;20215;-85
2022/12/01 14:21:04;;;;;;;25.03;15.33;;;;;;;10.44;52.71;99224.94;7006558;28;20209;-84
2022/12/01 14:24:31;;;;;;;27.73;15.87;;;;;;;10.58;52.86;99242.88;7008214;28;20222;-83
2022/12/01 14:27:56;;;;;;;24.77;16.33;;;;;;;10.40;53.05;99236.31;7006772;28;20237;-84
2022/12/01 14:31:17;;;;;;;25.30;15.17;;;;;;;10.51;52.84;99249.28;6985295;28;20245;-84
2022/12/01 14:34:39;;;;;;;22.30;14.33;;;;;;;10.57;52.78;99248.50;6978058;28;20224;-84
2022/12/01 14:38:04;;;;;;;19.03;14.10;;;;;;;10.60;52.37;99235.47;6975442;28;20310;-83
2022/12/01 14:41:30;;;;;;;25.67;15.17;;;;;;;10.50;52.31;99226.88;6978532;28;20673;-84
2022/12/01 14:44:54;;;;;;;45.20;24.13;;;;;;;10.73;52.16;99238.25;6979610;28;20284;-84
2022/12/01 14:48:20;;;;;;;19.67;13.93;;;;;;;10.37;52.45;99247.47;6982116;28;20257;-84
2022/12/01 14:51:44;;;;;;;31.60;18.37;;;;;;;10.65;52.97;99240.25;7006301;28;20209;-84
2022/12/01 14:55:14;;;;;;;19.50;13.80;;;;;;;10.45;52.95;99240.09;7005133;28;20296;-84
2022/12/01 14:58:35;;;;;;;26.40;15.03;;;;;;;10.71;52.70;99243.03;7005947;28;20251;-84
2022/12/01 15:02:07;;;;;;;23.97;15.40;;;;;;;10.57;52.77;99232.31;6983739;28;20207;-84
2022/12/01 15:05:30;;;;;;;22.60;15.80;;;;;;;10.97;52.14;99240.50;6997299;28;20221;-83
2022/12/01 15:09:05;;;;;;;27.20;16.50;;;;;;;11.14;51.84;99236.47;7011640;28;20225;-84
2022/12/01 15:12:28;;;;;;;38.93;23.60;;;;;;;10.90;51.93;99223.44;7009968;28;20302;-84
2022/12/01 15:15:51;;;;;;;24.23;16.03;;;;;;;10.92;52.17;99245.66;7001494;28;20261;-83
2022/12/01 15:19:24;;;;;;;23.33;15.93;;;;;;;10.50;53.14;99247.63;7009680;28;20231;-84
2022/12/01 15:22:45;;;;;;;27.27;17.93;;;;;;;10.84;52.69;99234.19;7006724;28;20340;-86
2022/12/01 15:26:15;;;;;;;22.57;16.30;;;;;;;10.85;53.00;99236.69;7009738;28;20230;-84
2022/12/01 15:29:43;;;;;;;27.27;18.97;;;;;;;10.80;52.14;99228.34;7002036;28;20225;-84
2022/12/01 15:33:05;;;;;;;21.97;15.43;;;;;;;10.35;53.53;99238.75;6998134;28;20243;-83
2022/12/01 15:36:28;;;;;;;21.17;15.00;;;;;;;10.21;53.31;99193.84;6999574;28;20675;-83
2022/12/01 15:39:52;;;;;;;25.23;16.07;;;;;;;10.83;53.11;99244.16;6999314;28;20201;-84
2022/12/01 15:43:17;;;;;;;22.23;15.93;;;;;;;11.02;52.45;99229.97;6986422;28;20585;-84
2022/12/01 15:46:39;;;;;;;25.70;16.37;;;;;;;10.94;52.38;99253.56;6998964;28;20208;-84
2022/12/01 15:50:00;;;;;;;22.83;15.87;;;;;;;10.66;52.56;99217.66;6998803;28;20620;-84
2022/12/01 15:53:25;;;;;;;24.70;15.83;;;;;;;10.80;53.10;99254.50;7000016;28;20229;-84
2022/12/01 15:56:51;;;;;;;32.57;17.87;;;;;;;10.89;53.21;99248.75;7002183;28;20571;-84
2022/12/01 16:00:18;;;;;;;27.03;17.23;;;;;;;11.12;52.54;99252.03;6994992;28;20191;-84
2022/12/01 16:03:52;;;;;;;24.57;15.57;;;;;;;10.78;53.03;99248.44;6992049;28;20311;-83